Terminal Aerodrome Forecast
Issued by NWS

Home | Current Version | Previous Version | Text Only | Print | Product List | Glossary On
Versions: 1 2 3 4 5 6 7 8 9 10 11 12
251
FTUS44 KEWX 191133
TAFSSF
TAF
KSSF 191133Z 1912/2012 VRB03KT P6SM SCT015 BKN022
     FM191600 15007KT P6SM BKN040
     FM200500 12007KT P6SM BKN015
     FM200800 13006KT P6SM OVC007=

USA.gov is the U.S. government's official web portal to all federal, state and local government web resources and services.